CheckWX is a tool to help pilots better visualize weather data.  It is not intended as a substitute for an official pre-flight weather briefing.

09:55:34 UTC

KLCK METAR
Rickenbacker International Airport
Columbus, Ohio, USA
Current

3 hours ago

KLCK 190630Z 11003KT 10SM SCT090 OVC110 20/19 A2998
Observed
Aug-19 @ 06:30 UTC
Wind
  • 110° at 3 KTS
Visibility
10 SM
Flight Rules
VFR
Cloud Levels
  • Scattered at 9,000' AGL
  • Overcast at 11,000' AGL
Temperature
20°C / 68°F
Dewpoint
19°C / 66°F
Humidity
94%
Altimeter
29.98" Hg
Pressure
1015.22 hPa
Previous

6 hours ago

KLCK 190425Z 33023KT 10SM OVC070 22/21 A2999
Observed
Aug-19 @ 04:25 UTC
Wind
  • 330° at 23 KTS
Visibility
10 SM
Flight Rules
VFR
Cloud Levels
  • Overcast at 7,000' AGL
Temperature
22°C / 72°F
Dewpoint
21°C / 70°F
Humidity
94%
Altimeter
29.99" Hg
Pressure
1015.62 hPa
Previous

9 hours ago

KLCK 190100Z 20009KT 10SM CLR 27/22 A2988
Observed
Aug-19 @ 01:00 UTC
Wind
  • 200° at 9 KTS
Visibility
10 SM
Flight Rules
VFR
Cloud Levels
  • Clear skies
Temperature
27°C / 81°F
Dewpoint
22°C / 72°F
Heat Index
29°C / 85°F
Humidity
74%
Altimeter
29.88" Hg
Pressure
1011.82 hPa